sensor_id;sensor_type;location;lat;lon;timestamp;P1;durP1;ratioP1;P2;durP2;ratioP2
1715;SDS011;855;48.824;9.220;2022-12-07T00:00:12;6.37;;;3.60;;
1715;SDS011;855;48.824;9.220;2022-12-07T00:02:40;5.77;;;3.47;;
1715;SDS011;855;48.824;9.220;2022-12-07T00:05:07;8.20;;;4.07;;
1715;SDS011;855;48.824;9.220;2022-12-07T00:07:35;10.67;;;4.03;;
1715;SDS011;855;48.824;9.220;2022-12-07T00:10:08;8.10;;;4.10;;
1715;SDS011;855;48.824;9.220;2022-12-07T00:12:35;7.90;;;3.80;;
1715;SDS011;855;48.824;9.220;2022-12-07T00:15:02;8.30;;;4.60;;
1715;SDS011;855;48.824;9.220;2022-12-07T00:17:29;9.30;;;3.70;;
1715;SDS011;855;48.824;9.220;2022-12-07T00:19:56;7.50;;;3.67;;
1715;SDS011;855;48.824;9.220;2022-12-07T00:22:23;8.30;;;3.37;;
1715;SDS011;855;48.824;9.220;2022-12-07T00:24:51;13.13;;;5.43;;
1715;SDS011;855;48.824;9.220;2022-12-07T00:27:18;9.30;;;4.03;;
1715;SDS011;855;48.824;9.220;2022-12-07T00:29:45;6.17;;;4.23;;
1715;SDS011;855;48.824;9.220;2022-12-07T00:32:12;7.80;;;3.97;;
1715;SDS011;855;48.824;9.220;2022-12-07T00:34:38;7.20;;;3.70;;
1715;SDS011;855;48.824;9.220;2022-12-07T00:37:05;8.67;;;4.83;;
1715;SDS011;855;48.824;9.220;2022-12-07T00:39:32;7.73;;;4.20;;
1715;SDS011;855;48.824;9.220;2022-12-07T00:42:00;9.80;;;3.90;;
1715;SDS011;855;48.824;9.220;2022-12-07T00:44:27;5.90;;;3.60;;
1715;SDS011;855;48.824;9.220;2022-12-07T00:46:54;5.30;;;3.70;;
1715;SDS011;855;48.824;9.220;2022-12-07T00:49:21;6.47;;;4.20;;
1715;SDS011;855;48.824;9.220;2022-12-07T00:51:48;19.00;;;4.60;;
1715;SDS011;855;48.824;9.220;2022-12-07T00:54:15;10.43;;;4.60;;
1715;SDS011;855;48.824;9.220;2022-12-07T00:56:42;10.30;;;4.03;;
1715;SDS011;855;48.824;9.220;2022-12-07T00:59:11;8.53;;;4.60;;
1715;SDS011;855;48.824;9.220;2022-12-07T01:01:39;10.40;;;4.27;;
1715;SDS011;855;48.824;9.220;2022-12-07T01:04:06;16.63;;;5.57;;
1715;SDS011;855;48.824;9.220;2022-12-07T01:06:33;6.37;;;3.70;;
1715;SDS011;855;48.824;9.220;2022-12-07T01:09:00;11.23;;;5.80;;
1715;SDS011;855;48.824;9.220;2022-12-07T01:11:29;7.83;;;5.13;;
1715;SDS011;855;48.824;9.220;2022-12-07T01:13:57;9.10;;;5.03;;
1715;SDS011;855;48.824;9.220;2022-12-07T01:16:27;10.77;;;4.10;;
1715;SDS011;855;48.824;9.220;2022-12-07T01:18:56;8.00;;;3.87;;
1715;SDS011;855;48.824;9.220;2022-12-07T01:21:25;9.70;;;4.87;;
1715;SDS011;855;48.824;9.220;2022-12-07T01:23:53;8.90;;;4.53;;
1715;SDS011;855;48.824;9.220;2022-12-07T01:26:20;7.57;;;4.03;;
1715;SDS011;855;48.824;9.220;2022-12-07T01:28:48;7.63;;;4.33;;
1715;SDS011;855;48.824;9.220;2022-12-07T01:31:16;9.77;;;4.00;;
1715;SDS011;855;48.824;9.220;2022-12-07T01:33:46;7.97;;;4.20;;
1715;SDS011;855;48.824;9.220;2022-12-07T01:36:16;9.70;;;4.70;;
1715;SDS011;855;48.824;9.220;2022-12-07T01:38:44;9.20;;;3.83;;
1715;SDS011;855;48.824;9.220;2022-12-07T01:41:12;10.30;;;4.83;;
1715;SDS011;855;48.824;9.220;2022-12-07T01:44:06;7.50;;;3.70;;
1715;SDS011;855;48.824;9.220;2022-12-07T01:46:37;10.50;;;4.63;;
1715;SDS011;855;48.824;9.220;2022-12-07T01:49:04;8.10;;;4.20;;
1715;SDS011;855;48.824;9.220;2022-12-07T01:51:34;20.70;;;5.37;;
1715;SDS011;855;48.824;9.220;2022-12-07T01:54:05;8.83;;;4.20;;
1715;SDS011;855;48.824;9.220;2022-12-07T01:56:33;10.37;;;4.43;;
1715;SDS011;855;48.824;9.220;2022-12-07T01:59:00;6.23;;;3.87;;
1715;SDS011;855;48.824;9.220;2022-12-07T02:01:29;10.53;;;4.70;;
1715;SDS011;855;48.824;9.220;2022-12-07T02:03:56;8.87;;;4.10;;
1715;SDS011;855;48.824;9.220;2022-12-07T02:06:24;10.63;;;4.07;;
1715;SDS011;855;48.824;9.220;2022-12-07T02:08:52;11.93;;;5.30;;
1715;SDS011;855;48.824;9.220;2022-12-07T02:11:20;9.20;;;4.37;;
1715;SDS011;855;48.824;9.220;2022-12-07T02:13:47;7.33;;;4.47;;
1715;SDS011;855;48.824;9.220;2022-12-07T02:16:18;7.93;;;4.00;;
1715;SDS011;855;48.824;9.220;2022-12-07T02:19:01;8.93;;;4.60;;
1715;SDS011;855;48.824;9.220;2022-12-07T02:21:55;6.47;;;3.50;;
1715;SDS011;855;48.824;9.220;2022-12-07T02:24:31;11.53;;;4.40;;
1715;SDS011;855;48.824;9.220;2022-12-07T02:27:17;7.50;;;3.70;;
1715;SDS011;855;48.824;9.220;2022-12-07T02:30:02;9.40;;;3.90;;
1715;SDS011;855;48.824;9.220;2022-12-07T02:32:35;6.20;;;2.80;;
1715;SDS011;855;48.824;9.220;2022-12-07T02:35:09;7.13;;;3.83;;
1715;SDS011;855;48.824;9.220;2022-12-07T02:37:41;10.90;;;4.27;;
1715;SDS011;855;48.824;9.220;2022-12-07T02:40:14;8.27;;;3.70;;
1715;SDS011;855;48.824;9.220;2022-12-07T02:42:46;8.43;;;4.20;;
1715;SDS011;855;48.824;9.220;2022-12-07T02:45:19;13.60;;;3.60;;
1715;SDS011;855;48.824;9.220;2022-12-07T02:47:49;9.50;;;5.07;;
1715;SDS011;855;48.824;9.220;2022-12-07T02:50:19;12.47;;;4.07;;
1715;SDS011;855;48.824;9.220;2022-12-07T02:52:46;5.50;;;3.30;;
1715;SDS011;855;48.824;9.220;2022-12-07T02:55:13;7.50;;;4.10;;
1715;SDS011;855;48.824;9.220;2022-12-07T02:57:48;6.43;;;3.33;;
1715;SDS011;855;48.824;9.220;2022-12-07T03:00:25;4.53;;;3.33;;
1715;SDS011;855;48.824;9.220;2022-12-07T03:02:53;10.93;;;4.37;;
1715;SDS011;855;48.824;9.220;2022-12-07T03:08:21;7.97;;;2.87;;
1715;SDS011;855;48.824;9.220;2022-12-07T03:10:56;4.87;;;3.33;;
1715;SDS011;855;48.824;9.220;2022-12-07T03:13:25;6.47;;;3.40;;
1715;SDS011;855;48.824;9.220;2022-12-07T03:16:00;6.00;;;3.20;;
1715;SDS011;855;48.824;9.220;2022-12-07T03:18:32;9.93;;;3.80;;
1715;SDS011;855;48.824;9.220;2022-12-07T03:21:05;9.23;;;3.87;;
1715;SDS011;855;48.824;9.220;2022-12-07T03:23:35;7.73;;;3.60;;
1715;SDS011;855;48.824;9.220;2022-12-07T03:26:06;5.50;;;3.30;;
1715;SDS011;855;48.824;9.220;2022-12-07T03:28:39;8.23;;;4.30;;
1715;SDS011;855;48.824;9.220;2022-12-07T03:31:11;4.37;;;2.87;;
1715;SDS011;855;48.824;9.220;2022-12-07T03:33:42;7.40;;;3.90;;
1715;SDS011;855;48.824;9.220;2022-12-07T03:36:14;11.83;;;4.70;;
1715;SDS011;855;48.824;9.220;2022-12-07T03:38:48;5.37;;;3.50;;
1715;SDS011;855;48.824;9.220;2022-12-07T03:41:18;7.90;;;3.33;;
1715;SDS011;855;48.824;9.220;2022-12-07T03:43:50;5.90;;;3.50;;
1715;SDS011;855;48.824;9.220;2022-12-07T03:46:20;8.57;;;3.87;;
1715;SDS011;855;48.824;9.220;2022-12-07T03:48:59;5.60;;;3.33;;
1715;SDS011;855;48.824;9.220;2022-12-07T03:51:36;9.27;;;3.73;;
1715;SDS011;855;48.824;9.220;2022-12-07T03:54:10;4.50;;;3.53;;
1715;SDS011;855;48.824;9.220;2022-12-07T03:56:42;10.10;;;4.00;;
1715;SDS011;855;48.824;9.220;2022-12-07T03:59:11;5.53;;;3.03;;
1715;SDS011;855;48.824;9.220;2022-12-07T04:01:42;14.00;;;3.77;;
1715;SDS011;855;48.824;9.220;2022-12-07T04:04:09;9.60;;;4.03;;
1715;SDS011;855;48.824;9.220;2022-12-07T04:06:36;6.57;;;2.90;;
1715;SDS011;855;48.824;9.220;2022-12-07T04:09:03;7.50;;;4.00;;
1715;SDS011;855;48.824;9.220;2022-12-07T04:11:30;9.83;;;4.23;;
1715;SDS011;855;48.824;9.220;2022-12-07T04:13:57;7.00;;;4.30;;
1715;SDS011;855;48.824;9.220;2022-12-07T04:16:43;6.27;;;3.40;;
1715;SDS011;855;48.824;9.220;2022-12-07T04:19:09;6.23;;;3.93;;
1715;SDS011;855;48.824;9.220;2022-12-07T04:21:37;10.70;;;3.53;;
1715;SDS011;855;48.824;9.220;2022-12-07T04:24:03;8.63;;;3.57;;
1715;SDS011;855;48.824;9.220;2022-12-07T04:26:31;13.93;;;5.50;;
1715;SDS011;855;48.824;9.220;2022-12-07T04:28:58;6.83;;;3.30;;
1715;SDS011;855;48.824;9.220;2022-12-07T04:31:24;10.57;;;4.47;;
1715;SDS011;855;48.824;9.220;2022-12-07T04:33:53;7.43;;;3.80;;
1715;SDS011;855;48.824;9.220;2022-12-07T04:36:19;7.30;;;3.57;;
1715;SDS011;855;48.824;9.220;2022-12-07T04:38:46;9.73;;;3.67;;
1715;SDS011;855;48.824;9.220;2022-12-07T04:41:13;9.03;;;4.90;;
1715;SDS011;855;48.824;9.220;2022-12-07T04:43:41;6.80;;;3.63;;
1715;SDS011;855;48.824;9.220;2022-12-07T04:46:08;11.90;;;4.67;;
1715;SDS011;855;48.824;9.220;2022-12-07T04:48:35;6.30;;;3.60;;
1715;SDS011;855;48.824;9.220;2022-12-07T04:51:04;9.43;;;4.13;;
1715;SDS011;855;48.824;9.220;2022-12-07T04:53:31;11.87;;;4.67;;
1715;SDS011;855;48.824;9.220;2022-12-07T04:55:57;9.30;;;3.63;;
1715;SDS011;855;48.824;9.220;2022-12-07T04:58:26;13.60;;;4.77;;
1715;SDS011;855;48.824;9.220;2022-12-07T05:00:53;8.07;;;4.10;;
1715;SDS011;855;48.824;9.220;2022-12-07T05:03:20;6.63;;;4.07;;
1715;SDS011;855;48.824;9.220;2022-12-07T05:05:48;12.13;;;4.53;;
1715;SDS011;855;48.824;9.220;2022-12-07T05:08:16;8.83;;;3.70;;
1715;SDS011;855;48.824;9.220;2022-12-07T05:10:43;10.20;;;4.23;;
1715;SDS011;855;48.824;9.220;2022-12-07T05:13:09;5.93;;;3.97;;
1715;SDS011;855;48.824;9.220;2022-12-07T05:15:36;10.10;;;3.97;;
1715;SDS011;855;48.824;9.220;2022-12-07T05:18:03;7.00;;;4.63;;
1715;SDS011;855;48.824;9.220;2022-12-07T05:20:30;8.03;;;3.83;;
1715;SDS011;855;48.824;9.220;2022-12-07T05:22:57;8.53;;;3.90;;
1715;SDS011;855;48.824;9.220;2022-12-07T05:25:26;12.90;;;5.03;;
1715;SDS011;855;48.824;9.220;2022-12-07T05:27:54;11.77;;;4.70;;
1715;SDS011;855;48.824;9.220;2022-12-07T05:30:21;10.43;;;4.20;;
1715;SDS011;855;48.824;9.220;2022-12-07T05:32:48;8.00;;;3.80;;
1715;SDS011;855;48.824;9.220;2022-12-07T05:35:15;11.07;;;4.87;;
1715;SDS011;855;48.824;9.220;2022-12-07T05:37:42;11.87;;;4.07;;
1715;SDS011;855;48.824;9.220;2022-12-07T05:40:10;12.87;;;4.93;;
1715;SDS011;855;48.824;9.220;2022-12-07T05:42:39;10.13;;;4.30;;
1715;SDS011;855;48.824;9.220;2022-12-07T05:45:06;4.13;;;2.93;;
1715;SDS011;855;48.824;9.220;2022-12-07T05:47:33;9.80;;;3.00;;
1715;SDS011;855;48.824;9.220;2022-12-07T05:50:00;10.03;;;4.27;;
1715;SDS011;855;48.824;9.220;2022-12-07T05:52:27;10.13;;;4.07;;
1715;SDS011;855;48.824;9.220;2022-12-07T05:54:54;9.87;;;3.90;;
1715;SDS011;855;48.824;9.220;2022-12-07T05:57:21;6.10;;;3.37;;
1715;SDS011;855;48.824;9.220;2022-12-07T05:59:50;8.93;;;3.90;;
1715;SDS011;855;48.824;9.220;2022-12-07T06:02:16;10.27;;;4.90;;
1715;SDS011;855;48.824;9.220;2022-12-07T06:04:43;6.30;;;3.13;;
1715;SDS011;855;48.824;9.220;2022-12-07T06:07:12;6.43;;;3.40;;
1715;SDS011;855;48.824;9.220;2022-12-07T06:09:40;10.37;;;3.93;;
1715;SDS011;855;48.824;9.220;2022-12-07T06:12:09;7.17;;;4.10;;
1715;SDS011;855;48.824;9.220;2022-12-07T06:14:56;10.50;;;4.90;;
1715;SDS011;855;48.824;9.220;2022-12-07T06:17:23;9.40;;;3.83;;
1715;SDS011;855;48.824;9.220;2022-12-07T06:19:50;9.60;;;3.97;;
1715;SDS011;855;48.824;9.220;2022-12-07T06:22:17;6.83;;;4.03;;
1715;SDS011;855;48.824;9.220;2022-12-07T06:24:44;6.03;;;3.60;;
1715;SDS011;855;48.824;9.220;2022-12-07T06:27:11;6.90;;;4.07;;
1715;SDS011;855;48.824;9.220;2022-12-07T06:29:38;8.60;;;4.60;;
1715;SDS011;855;48.824;9.220;2022-12-07T06:32:06;7.23;;;4.10;;
1715;SDS011;855;48.824;9.220;2022-12-07T06:34:34;10.73;;;4.60;;
1715;SDS011;855;48.824;9.220;2022-12-07T06:37:00;8.87;;;4.00;;
1715;SDS011;855;48.824;9.220;2022-12-07T06:39:28;6.67;;;3.40;;
1715;SDS011;855;48.824;9.220;2022-12-07T06:41:55;10.10;;;5.07;;
1715;SDS011;855;48.824;9.220;2022-12-07T06:44:22;11.53;;;4.53;;
1715;SDS011;855;48.824;9.220;2022-12-07T06:46:50;14.60;;;4.53;;
1715;SDS011;855;48.824;9.220;2022-12-07T06:49:19;10.37;;;3.60;;
1715;SDS011;855;48.824;9.220;2022-12-07T06:51:46;8.80;;;3.50;;
1715;SDS011;855;48.824;9.220;2022-12-07T06:54:13;8.53;;;3.67;;
1715;SDS011;855;48.824;9.220;2022-12-07T06:56:41;9.70;;;4.63;;
1715;SDS011;855;48.824;9.220;2022-12-07T06:59:08;10.80;;;4.83;;
1715;SDS011;855;48.824;9.220;2022-12-07T07:01:35;10.67;;;4.20;;
1715;SDS011;855;48.824;9.220;2022-12-07T07:04:02;6.93;;;3.70;;
1715;SDS011;855;48.824;9.220;2022-12-07T07:06:31;8.70;;;3.73;;
1715;SDS011;855;48.824;9.220;2022-12-07T07:08:59;11.80;;;3.60;;
1715;SDS011;855;48.824;9.220;2022-12-07T07:11:26;8.20;;;4.43;;
1715;SDS011;855;48.824;9.220;2022-12-07T07:13:53;9.03;;;4.50;;
1715;SDS011;855;48.824;9.220;2022-12-07T07:16:22;15.57;;;4.40;;
1715;SDS011;855;48.824;9.220;2022-12-07T07:18:49;10.20;;;3.67;;
1715;SDS011;855;48.824;9.220;2022-12-07T07:21:16;8.33;;;3.90;;
1715;SDS011;855;48.824;9.220;2022-12-07T07:23:44;6.93;;;3.90;;
1715;SDS011;855;48.824;9.220;2022-12-07T07:26:11;5.27;;;2.67;;
1715;SDS011;855;48.824;9.220;2022-12-07T07:28:38;6.60;;;3.20;;
1715;SDS011;855;48.824;9.220;2022-12-07T07:31:05;4.57;;;2.67;;
1715;SDS011;855;48.824;9.220;2022-12-07T07:33:32;11.77;;;4.00;;
1715;SDS011;855;48.824;9.220;2022-12-07T07:35:58;6.77;;;2.90;;
1715;SDS011;855;48.824;9.220;2022-12-07T07:38:25;7.53;;;3.27;;
1715;SDS011;855;48.824;9.220;2022-12-07T07:40:53;5.80;;;3.17;;
1715;SDS011;855;48.824;9.220;2022-12-07T07:43:20;6.37;;;3.27;;
1715;SDS011;855;48.824;9.220;2022-12-07T07:45:47;5.70;;;3.20;;
1715;SDS011;855;48.824;9.220;2022-12-07T07:48:14;3.83;;;2.43;;
1715;SDS011;855;48.824;9.220;2022-12-07T07:50:41;11.93;;;3.10;;
1715;SDS011;855;48.824;9.220;2022-12-07T07:53:07;6.00;;;2.97;;
1715;SDS011;855;48.824;9.220;2022-12-07T07:55:35;10.83;;;3.30;;
1715;SDS011;855;48.824;9.220;2022-12-07T07:58:03;7.80;;;3.43;;
1715;SDS011;855;48.824;9.220;2022-12-07T08:00:30;5.60;;;3.57;;
1715;SDS011;855;48.824;9.220;2022-12-07T08:02:57;7.40;;;3.30;;
1715;SDS011;855;48.824;9.220;2022-12-07T08:05:24;5.17;;;3.23;;
1715;SDS011;855;48.824;9.220;2022-12-07T08:07:51;6.70;;;2.47;;
1715;SDS011;855;48.824;9.220;2022-12-07T08:10:17;7.83;;;3.40;;
1715;SDS011;855;48.824;9.220;2022-12-07T08:12:44;5.90;;;3.27;;
1715;SDS011;855;48.824;9.220;2022-12-07T08:15:30;5.83;;;2.93;;
1715;SDS011;855;48.824;9.220;2022-12-07T08:17:57;6.13;;;2.60;;
1715;SDS011;855;48.824;9.220;2022-12-07T08:20:24;6.23;;;2.30;;
1715;SDS011;855;48.824;9.220;2022-12-07T08:22:51;4.60;;;2.67;;
1715;SDS011;855;48.824;9.220;2022-12-07T08:25:18;5.33;;;2.73;;
1715;SDS011;855;48.824;9.220;2022-12-07T08:27:45;9.83;;;4.17;;
1715;SDS011;855;48.824;9.220;2022-12-07T08:30:12;4.90;;;2.80;;
1715;SDS011;855;48.824;9.220;2022-12-07T08:32:48;5.30;;;2.37;;
1715;SDS011;855;48.824;9.220;2022-12-07T08:35:16;2.73;;;2.33;;
1715;SDS011;855;48.824;9.220;2022-12-07T08:37:43;7.97;;;2.90;;
1715;SDS011;855;48.824;9.220;2022-12-07T08:40:10;7.50;;;4.00;;
1715;SDS011;855;48.824;9.220;2022-12-07T08:42:40;3.97;;;2.10;;
1715;SDS011;855;48.824;9.220;2022-12-07T08:45:08;2.30;;;2.10;;
1715;SDS011;855;48.824;9.220;2022-12-07T08:47:36;5.23;;;2.10;;
1715;SDS011;855;48.824;9.220;2022-12-07T08:50:08;7.17;;;2.43;;
1715;SDS011;855;48.824;9.220;2022-12-07T08:52:36;5.38;;;2.63;;
1715;SDS011;855;48.824;9.220;2022-12-07T08:55:05;17.13;;;3.53;;
1715;SDS011;855;48.824;9.220;2022-12-07T08:57:32;4.30;;;2.60;;
1715;SDS011;855;48.824;9.220;2022-12-07T09:00:02;4.93;;;2.30;;
1715;SDS011;855;48.824;9.220;2022-12-07T09:02:30;4.53;;;1.53;;
1715;SDS011;855;48.824;9.220;2022-12-07T09:04:57;4.30;;;2.33;;
1715;SDS011;855;48.824;9.220;2022-12-07T09:07:25;4.30;;;2.07;;
1715;SDS011;855;48.824;9.220;2022-12-07T09:09:53;2.30;;;1.93;;
1715;SDS011;855;48.824;9.220;2022-12-07T09:12:19;2.53;;;2.43;;
1715;SDS011;855;48.824;9.220;2022-12-07T09:14:46;3.90;;;2.10;;
1715;SDS011;855;48.824;9.220;2022-12-07T09:17:13;3.57;;;1.90;;
1715;SDS011;855;48.824;9.220;2022-12-07T09:19:40;6.20;;;2.33;;
1715;SDS011;855;48.824;9.220;2022-12-07T09:22:07;2.30;;;1.77;;
1715;SDS011;855;48.824;9.220;2022-12-07T09:24:36;4.13;;;2.30;;
1715;SDS011;855;48.824;9.220;2022-12-07T09:27:03;5.40;;;2.13;;
1715;SDS011;855;48.824;9.220;2022-12-07T09:29:29;7.43;;;2.20;;
1715;SDS011;855;48.824;9.220;2022-12-07T09:31:56;6.53;;;2.50;;
1715;SDS011;855;48.824;9.220;2022-12-07T09:34:25;6.53;;;2.47;;
1715;SDS011;855;48.824;9.220;2022-12-07T09:36:52;4.20;;;2.03;;
1715;SDS011;855;48.824;9.220;2022-12-07T09:39:19;8.77;;;1.80;;
1715;SDS011;855;48.824;9.220;2022-12-07T09:41:47;5.00;;;2.20;;
1715;SDS011;855;48.824;9.220;2022-12-07T09:44:17;4.30;;;1.93;;
1715;SDS011;855;48.824;9.220;2022-12-07T09:46:47;2.30;;;1.63;;
1715;SDS011;855;48.824;9.220;2022-12-07T09:49:16;3.63;;;2.00;;
1715;SDS011;855;48.824;9.220;2022-12-07T09:51:46;4.87;;;2.37;;
1715;SDS011;855;48.824;9.220;2022-12-07T09:54:14;3.00;;;1.87;;
1715;SDS011;855;48.824;9.220;2022-12-07T09:56:41;3.70;;;2.33;;
1715;SDS011;855;48.824;9.220;2022-12-07T09:59:12;2.17;;;2.00;;
1715;SDS011;855;48.824;9.220;2022-12-07T10:01:42;2.13;;;1.33;;
1715;SDS011;855;48.824;9.220;2022-12-07T10:04:11;3.23;;;2.27;;
1715;SDS011;855;48.824;9.220;2022-12-07T10:06:40;3.13;;;1.93;;
1715;SDS011;855;48.824;9.220;2022-12-07T10:09:09;1.90;;;1.53;;
1715;SDS011;855;48.824;9.220;2022-12-07T10:14:26;4.23;;;2.37;;
1715;SDS011;855;48.824;9.220;2022-12-07T10:16:54;5.00;;;2.70;;
1715;SDS011;855;48.824;9.220;2022-12-07T10:19:23;2.07;;;1.40;;
1715;SDS011;855;48.824;9.220;2022-12-07T10:22:01;4.23;;;1.93;;
1715;SDS011;855;48.824;9.220;2022-12-07T10:24:30;5.40;;;1.77;;
1715;SDS011;855;48.824;9.220;2022-12-07T10:26:58;3.97;;;2.00;;
1715;SDS011;855;48.824;9.220;2022-12-07T10:29:29;3.63;;;1.70;;
1715;SDS011;855;48.824;9.220;2022-12-07T10:31:59;8.93;;;1.87;;
1715;SDS011;855;48.824;9.220;2022-12-07T10:34:29;5.37;;;1.60;;
1715;SDS011;855;48.824;9.220;2022-12-07T10:37:11;2.83;;;1.60;;
1715;SDS011;855;48.824;9.220;2022-12-07T10:39:42;4.90;;;2.27;;
1715;SDS011;855;48.824;9.220;2022-12-07T10:42:20;1.57;;;1.20;;
1715;SDS011;855;48.824;9.220;2022-12-07T10:44:49;3.93;;;2.67;;
1715;SDS011;855;48.824;9.220;2022-12-07T10:47:35;4.47;;;2.00;;
1715;SDS011;855;48.824;9.220;2022-12-07T10:59:17;3.83;;;2.07;;
1715;SDS011;855;48.824;9.220;2022-12-07T11:02:09;2.60;;;1.67;;
1715;SDS011;855;48.824;9.220;2022-12-07T11:04:54;1.73;;;1.73;;
1715;SDS011;855;48.824;9.220;2022-12-07T11:07:32;2.47;;;1.10;;
1715;SDS011;855;48.824;9.220;2022-12-07T11:10:08;5.13;;;2.43;;
1715;SDS011;855;48.824;9.220;2022-12-07T11:12:49;3.93;;;2.10;;
1715;SDS011;855;48.824;9.220;2022-12-07T11:15:28;2.13;;;1.97;;
1715;SDS011;855;48.824;9.220;2022-12-07T11:18:03;8.97;;;1.70;;
1715;SDS011;855;48.824;9.220;2022-12-07T11:20:40;4.67;;;1.53;;
1715;SDS011;855;48.824;9.220;2022-12-07T11:23:13;3.50;;;1.97;;
1715;SDS011;855;48.824;9.220;2022-12-07T11:25:49;1.17;;;0.73;;
1715;SDS011;855;48.824;9.220;2022-12-07T11:28:24;2.87;;;1.77;;
1715;SDS011;855;48.824;9.220;2022-12-07T11:31:17;2.87;;;1.27;;
1715;SDS011;855;48.824;9.220;2022-12-07T11:33:51;7.80;;;1.93;;
1715;SDS011;855;48.824;9.220;2022-12-07T11:36:31;2.63;;;1.37;;
1715;SDS011;855;48.824;9.220;2022-12-07T11:39:04;1.33;;;1.30;;
1715;SDS011;855;48.824;9.220;2022-12-07T11:41:35;2.23;;;1.93;;
1715;SDS011;855;48.824;9.220;2022-12-07T11:44:06;3.17;;;2.13;;
1715;SDS011;855;48.824;9.220;2022-12-07T11:46:43;1.77;;;1.70;;
1715;SDS011;855;48.824;9.220;2022-12-07T11:49:17;2.60;;;1.63;;
1715;SDS011;855;48.824;9.220;2022-12-07T11:51:51;3.93;;;2.33;;
1715;SDS011;855;48.824;9.220;2022-12-07T11:54:23;4.87;;;2.80;;
1715;SDS011;855;48.824;9.220;2022-12-07T11:56:53;8.53;;;3.20;;
1715;SDS011;855;48.824;9.220;2022-12-07T11:59:23;6.00;;;2.40;;
1715;SDS011;855;48.824;9.220;2022-12-07T12:01:56;5.23;;;3.13;;
1715;SDS011;855;48.824;9.220;2022-12-07T12:04:32;4.70;;;2.60;;
1715;SDS011;855;48.824;9.220;2022-12-07T12:07:06;7.80;;;3.33;;
1715;SDS011;855;48.824;9.220;2022-12-07T12:09:34;5.07;;;3.00;;
1715;SDS011;855;48.824;9.220;2022-12-07T12:12:26;7.00;;;2.73;;
1715;SDS011;855;48.824;9.220;2022-12-07T12:15:15;5.70;;;2.60;;
1715;SDS011;855;48.824;9.220;2022-12-07T12:17:52;5.80;;;2.60;;
1715;SDS011;855;48.824;9.220;2022-12-07T12:20:45;11.20;;;2.97;;
1715;SDS011;855;48.824;9.220;2022-12-07T12:23:15;4.90;;;2.80;;
1715;SDS011;855;48.824;9.220;2022-12-07T12:25:45;5.60;;;3.00;;
1715;SDS011;855;48.824;9.220;2022-12-07T12:28:19;4.97;;;2.70;;
1715;SDS011;855;48.824;9.220;2022-12-07T12:31:07;6.73;;;3.33;;
1715;SDS011;855;48.824;9.220;2022-12-07T12:33:37;3.70;;;2.33;;
1715;SDS011;855;48.824;9.220;2022-12-07T12:36:21;5.37;;;2.50;;
1715;SDS011;855;48.824;9.220;2022-12-07T12:38:51;6.10;;;3.77;;
1715;SDS011;855;48.824;9.220;2022-12-07T12:41:53;10.07;;;3.87;;
1715;SDS011;855;48.824;9.220;2022-12-07T12:47:56;4.97;;;2.50;;
1715;SDS011;855;48.824;9.220;2022-12-07T12:50:25;4.87;;;2.23;;
1715;SDS011;855;48.824;9.220;2022-12-07T12:53:19;3.80;;;2.23;;
1715;SDS011;855;48.824;9.220;2022-12-07T12:55:54;8.03;;;3.67;;
1715;SDS011;855;48.824;9.220;2022-12-07T12:58:39;5.10;;;2.97;;
1715;SDS011;855;48.824;9.220;2022-12-07T13:22:34;4.20;;;2.30;;
1715;SDS011;855;48.824;9.220;2022-12-07T13:25:18;6.73;;;2.80;;
1715;SDS011;855;48.824;9.220;2022-12-07T13:28:01;7.17;;;3.57;;
1715;SDS011;855;48.824;9.220;2022-12-07T13:30:39;6.20;;;2.57;;
1715;SDS011;855;48.824;9.220;2022-12-07T13:33:11;11.23;;;3.80;;
1715;SDS011;855;48.824;9.220;2022-12-07T13:35:38;9.93;;;2.63;;
1715;SDS011;855;48.824;9.220;2022-12-07T13:38:13;11.83;;;3.20;;
1715;SDS011;855;48.824;9.220;2022-12-07T13:40:58;8.20;;;3.57;;
1715;SDS011;855;48.824;9.220;2022-12-07T13:43:45;6.87;;;3.03;;
1715;SDS011;855;48.824;9.220;2022-12-07T13:46:16;5.27;;;3.70;;
1715;SDS011;855;48.824;9.220;2022-12-07T13:48:46;6.50;;;3.17;;
1715;SDS011;855;48.824;9.220;2022-12-07T13:51:18;14.20;;;2.87;;
1715;SDS011;855;48.824;9.220;2022-12-07T13:53:47;7.47;;;4.40;;
1715;SDS011;855;48.824;9.220;2022-12-07T13:56:15;6.40;;;2.90;;
1715;SDS011;855;48.824;9.220;2022-12-07T13:58:42;11.00;;;4.60;;
1715;SDS011;855;48.824;9.220;2022-12-07T14:01:11;12.57;;;3.67;;
1715;SDS011;855;48.824;9.220;2022-12-07T14:03:38;8.13;;;2.83;;
1715;SDS011;855;48.824;9.220;2022-12-07T14:11:44;4.10;;;2.10;;
1715;SDS011;855;48.824;9.220;2022-12-07T14:14:11;4.90;;;2.73;;
1715;SDS011;855;48.824;9.220;2022-12-07T14:16:54;2.50;;;2.03;;
1715;SDS011;855;48.824;9.220;2022-12-07T14:19:40;11.53;;;3.57;;
1715;SDS011;855;48.824;9.220;2022-12-07T14:22:17;7.07;;;3.27;;
1715;SDS011;855;48.824;9.220;2022-12-07T14:24:47;2.90;;;2.03;;
1715;SDS011;855;48.824;9.220;2022-12-07T14:27:16;4.60;;;2.30;;
1715;SDS011;855;48.824;9.220;2022-12-07T14:29:44;3.13;;;2.87;;
1715;SDS011;855;48.824;9.220;2022-12-07T14:32:23;8.67;;;3.33;;
1715;SDS011;855;48.824;9.220;2022-12-07T14:35:01;5.50;;;2.43;;
1715;SDS011;855;48.824;9.220;2022-12-07T14:37:29;7.63;;;3.60;;
1715;SDS011;855;48.824;9.220;2022-12-07T14:39:56;7.20;;;3.37;;
1715;SDS011;855;48.824;9.220;2022-12-07T14:42:24;8.90;;;3.97;;
1715;SDS011;855;48.824;9.220;2022-12-07T14:44:54;11.60;;;4.43;;
1715;SDS011;855;48.824;9.220;2022-12-07T14:47:22;8.93;;;4.10;;
1715;SDS011;855;48.824;9.220;2022-12-07T14:49:50;5.80;;;3.30;;
1715;SDS011;855;48.824;9.220;2022-12-07T14:52:17;8.20;;;4.00;;
1715;SDS011;855;48.824;9.220;2022-12-07T14:54:46;8.83;;;3.30;;
1715;SDS011;855;48.824;9.220;2022-12-07T14:57:13;7.27;;;4.00;;
1715;SDS011;855;48.824;9.220;2022-12-07T14:59:40;11.20;;;3.57;;
1715;SDS011;855;48.824;9.220;2022-12-07T15:02:09;9.97;;;3.50;;
1715;SDS011;855;48.824;9.220;2022-12-07T15:04:40;6.50;;;3.10;;
1715;SDS011;855;48.824;9.220;2022-12-07T15:07:09;8.77;;;4.07;;
1715;SDS011;855;48.824;9.220;2022-12-07T15:09:41;9.90;;;3.47;;
1715;SDS011;855;48.824;9.220;2022-12-07T15:12:09;7.70;;;3.43;;
1715;SDS011;855;48.824;9.220;2022-12-07T15:14:36;10.23;;;4.03;;
1715;SDS011;855;48.824;9.220;2022-12-07T15:17:07;8.00;;;3.20;;
1715;SDS011;855;48.824;9.220;2022-12-07T15:19:42;8.90;;;4.17;;
1715;SDS011;855;48.824;9.220;2022-12-07T15:22:09;9.87;;;4.13;;
1715;SDS011;855;48.824;9.220;2022-12-07T15:24:36;9.43;;;3.57;;
1715;SDS011;855;48.824;9.220;2022-12-07T15:27:03;13.97;;;4.60;;
1715;SDS011;855;48.824;9.220;2022-12-07T15:29:31;7.10;;;3.57;;
1715;SDS011;855;48.824;9.220;2022-12-07T15:31:57;9.23;;;4.33;;
1715;SDS011;855;48.824;9.220;2022-12-07T15:34:24;9.93;;;4.23;;
1715;SDS011;855;48.824;9.220;2022-12-07T15:36:54;12.07;;;4.80;;
1715;SDS011;855;48.824;9.220;2022-12-07T15:39:21;7.40;;;3.40;;
1715;SDS011;855;48.824;9.220;2022-12-07T15:41:48;8.07;;;3.50;;
1715;SDS011;855;48.824;9.220;2022-12-07T15:44:15;9.20;;;3.40;;
1715;SDS011;855;48.824;9.220;2022-12-07T15:46:59;10.07;;;4.40;;
1715;SDS011;855;48.824;9.220;2022-12-07T15:49:26;13.77;;;5.43;;
1715;SDS011;855;48.824;9.220;2022-12-07T15:51:55;9.67;;;4.40;;
1715;SDS011;855;48.824;9.220;2022-12-07T15:54:23;12.60;;;5.63;;
1715;SDS011;855;48.824;9.220;2022-12-07T15:56:51;13.27;;;4.00;;
1715;SDS011;855;48.824;9.220;2022-12-07T15:59:20;13.03;;;5.10;;
1715;SDS011;855;48.824;9.220;2022-12-07T16:01:47;6.00;;;4.10;;
1715;SDS011;855;48.824;9.220;2022-12-07T16:04:14;12.30;;;4.17;;
1715;SDS011;855;48.824;9.220;2022-12-07T16:06:47;6.77;;;3.30;;
1715;SDS011;855;48.824;9.220;2022-12-07T16:09:17;7.37;;;3.07;;
1715;SDS011;855;48.824;9.220;2022-12-07T16:11:44;8.50;;;3.63;;
1715;SDS011;855;48.824;9.220;2022-12-07T16:14:11;10.40;;;4.40;;
1715;SDS011;855;48.824;9.220;2022-12-07T16:16:38;8.50;;;3.83;;
1715;SDS011;855;48.824;9.220;2022-12-07T16:19:06;9.63;;;3.67;;
1715;SDS011;855;48.824;9.220;2022-12-07T16:21:39;10.80;;;4.33;;
1715;SDS011;855;48.824;9.220;2022-12-07T16:24:09;9.37;;;3.63;;
1715;SDS011;855;48.824;9.220;2022-12-07T16:26:39;8.17;;;3.43;;
1715;SDS011;855;48.824;9.220;2022-12-07T16:29:05;9.47;;;4.23;;
1715;SDS011;855;48.824;9.220;2022-12-07T16:31:32;15.17;;;4.20;;